createdAt,value
2022-09-15T00:00:08.577Z,17.95
2022-09-15T00:02:35.110Z,17.91
2022-09-15T00:05:01.863Z,17.95
2022-09-15T00:07:28.362Z,17.84
2022-09-15T00:09:54.754Z,17.88
2022-09-15T00:12:21.143Z,17.84
2022-09-15T00:14:47.565Z,17.79
2022-09-15T00:17:14.138Z,17.68
2022-09-15T00:19:40.610Z,17.73
2022-09-15T00:22:07.153Z,17.74
2022-09-15T00:24:33.523Z,17.66
2022-09-15T00:26:59.906Z,17.71
2022-09-15T00:29:26.271Z,17.66
2022-09-15T00:31:52.717Z,17.60
2022-09-15T00:34:19.159Z,17.43
2022-09-15T00:36:45.569Z,17.50
2022-09-15T00:39:12.316Z,17.56
2022-09-15T00:41:40.734Z,17.53
2022-09-15T00:44:16.151Z,17.49
2022-09-15T00:46:54.826Z,17.56
2022-09-15T00:49:36.642Z,17.44
2022-09-15T00:52:07.384Z,17.38
2022-09-15T00:54:58.656Z,17.43
2022-09-15T00:57:40.827Z,17.34
2022-09-15T01:00:11.623Z,17.45
2022-09-15T01:02:40.051Z,17.39
2022-09-15T01:05:10.672Z,17.38
2022-09-15T01:07:47.914Z,17.32
2022-09-15T01:10:22.383Z,17.30
2022-09-15T01:12:49.172Z,17.28
2022-09-15T01:15:16.271Z,17.25
2022-09-15T01:17:52.522Z,17.23
2022-09-15T01:20:56.033Z,17.24
2022-09-15T01:23:56.455Z,17.24
2022-09-15T01:26:50.285Z,17.23
2022-09-15T01:29:42.491Z,17.20
2022-09-15T01:32:35.709Z,17.19
2022-09-15T01:35:14.850Z,17.18
2022-09-15T01:38:11.881Z,17.20
2022-09-15T01:40:58.886Z,17.17
2022-09-15T01:43:27.845Z,17.16
2022-09-15T01:45:54.355Z,16.75
2022-09-15T01:48:25.362Z,16.92
2022-09-15T01:50:55.993Z,17.10
2022-09-15T01:53:23.594Z,17.04
2022-09-15T01:56:01.844Z,16.78
2022-09-15T01:58:28.250Z,16.95
2022-09-15T02:01:13.830Z,17.05
2022-09-15T02:03:55.349Z,16.99
2022-09-15T02:06:33.727Z,16.96
2022-09-15T02:09:12.593Z,16.99
2022-09-15T02:11:49.116Z,17.04
2022-09-15T02:14:33.736Z,17.02
2022-09-15T02:17:01.581Z,16.95
2022-09-15T02:19:34.539Z,16.99
2022-09-15T02:22:12.704Z,16.86
2022-09-15T02:24:44.890Z,16.91
2022-09-15T02:27:24.607Z,16.96
2022-09-15T02:29:53.806Z,16.61
2022-09-15T02:32:24.052Z,16.78
2022-09-15T02:34:52.046Z,16.68
2022-09-15T02:37:22.887Z,16.79
2022-09-15T02:39:58.005Z,16.83
2022-09-15T02:42:30.524Z,16.81
2022-09-15T02:44:57.844Z,16.72
2022-09-15T02:47:24.418Z,16.71
2022-09-15T02:49:51.109Z,16.69
2022-09-15T02:52:17.800Z,16.71
2022-09-15T02:54:44.157Z,16.65
2022-09-15T02:57:10.601Z,16.66
2022-09-15T02:59:55.601Z,16.52
2022-09-15T03:02:23.471Z,16.57
2022-09-15T03:04:50.545Z,16.62
2022-09-15T03:07:18.564Z,16.27
2022-09-15T03:09:45.507Z,16.05
2022-09-15T03:12:12.129Z,16.51
2022-09-15T03:14:38.797Z,16.57
2022-09-15T03:17:05.621Z,16.41
2022-09-15T03:19:32.026Z,16.51
2022-09-15T03:21:58.426Z,16.30
2022-09-15T03:24:24.891Z,16.44
2022-09-15T03:26:51.314Z,16.57
2022-09-15T03:29:17.729Z,16.67
2022-09-15T03:31:44.174Z,16.61
2022-09-15T03:34:10.750Z,16.62
2022-09-15T03:36:38.202Z,16.71
2022-09-15T03:39:04.669Z,16.71
2022-09-15T03:41:31.049Z,16.64
2022-09-15T03:43:57.651Z,16.40
2022-09-15T03:46:24.161Z,16.52
2022-09-15T03:48:50.542Z,16.65
2022-09-15T03:51:16.953Z,16.68
2022-09-15T03:53:43.692Z,16.66
2022-09-15T03:56:10.167Z,16.61
2022-09-15T03:58:36.618Z,16.51
2022-09-15T04:01:03.616Z,16.61
2022-09-15T04:03:31.599Z,16.63
2022-09-15T04:05:58.018Z,16.63
2022-09-15T04:08:24.416Z,16.62
2022-09-15T04:10:50.865Z,16.56
2022-09-15T04:13:17.263Z,16.60
2022-09-15T04:15:44.458Z,16.47
2022-09-15T04:18:10.840Z,16.52
2022-09-15T04:20:39.707Z,16.39
2022-09-15T04:23:06.114Z,16.07
2022-09-15T04:25:32.540Z,16.37
2022-09-15T04:27:58.962Z,16.35
2022-09-15T04:30:25.438Z,16.31
2022-09-15T04:32:52.383Z,16.40
2022-09-15T04:35:18.829Z,16.43
2022-09-15T04:37:45.254Z,16.42
2022-09-15T04:40:11.774Z,16.35
2022-09-15T04:42:38.341Z,16.12
2022-09-15T04:45:05.621Z,16.48
2022-09-15T04:47:32.017Z,16.34
2022-09-15T04:49:58.537Z,16.57
2022-09-15T04:52:24.938Z,16.53
2022-09-15T04:54:51.350Z,16.48
2022-09-15T04:57:17.782Z,16.42
2022-09-15T04:59:44.158Z,16.38
2022-09-15T05:02:10.617Z,16.30
2022-09-15T05:04:37.052Z,16.64
2022-09-15T05:07:03.516Z,16.71
2022-09-15T05:09:30.928Z,16.61
2022-09-15T05:11:57.699Z,16.47
2022-09-15T05:14:24.146Z,16.74
2022-09-15T05:16:50.568Z,16.75
2022-09-15T05:19:17.015Z,16.33
2022-09-15T05:21:43.365Z,16.59
2022-09-15T05:24:09.846Z,16.85
2022-09-15T05:26:36.212Z,16.12
2022-09-15T05:29:02.678Z,16.53
2022-09-15T05:31:31.403Z,16.88
2022-09-15T05:34:00.733Z,16.76
2022-09-15T05:36:27.114Z,17.09
2022-09-15T05:38:56.451Z,17.00
2022-09-15T05:41:23.848Z,16.89
2022-09-15T05:43:50.940Z,17.01
2022-09-15T05:46:18.841Z,17.29
2022-09-15T05:48:45.780Z,17.42
2022-09-15T05:51:13.348Z,17.47
2022-09-15T05:53:40.072Z,17.10
2022-09-15T05:56:12.442Z,17.09
2022-09-15T05:58:43.663Z,17.46
2022-09-15T06:01:18.009Z,17.33
2022-09-15T06:03:44.925Z,17.49
2022-09-15T06:06:12.189Z,17.67
2022-09-15T06:08:44.265Z,17.34
2022-09-15T06:11:16.721Z,17.19
2022-09-15T06:13:44.050Z,16.99
2022-09-15T06:16:13.770Z,17.27
2022-09-15T06:18:41.469Z,17.13
2022-09-15T06:21:16.393Z,17.36
2022-09-15T06:23:46.030Z,17.62
2022-09-15T06:26:19.043Z,17.49
2022-09-15T06:28:50.778Z,17.74
2022-09-15T06:31:18.244Z,17.54
2022-09-15T06:33:48.078Z,17.60
2022-09-15T06:36:15.806Z,17.04
2022-09-15T06:38:43.425Z,17.11
2022-09-15T06:41:10.895Z,17.15
2022-09-15T06:43:38.256Z,17.56
2022-09-15T06:46:19.673Z,17.82
2022-09-15T06:48:48.456Z,17.48
2022-09-15T06:51:17.045Z,17.71
2022-09-15T06:53:44.023Z,17.21
2022-09-15T06:56:15.754Z,17.76
2022-09-15T06:58:43.293Z,17.61
2022-09-15T07:01:12.630Z,17.57
2022-09-15T07:03:41.493Z,17.89
2022-09-15T07:06:08.900Z,17.97
2022-09-15T07:08:35.431Z,17.98
2022-09-15T07:11:02.034Z,18.05
2022-09-15T07:13:28.443Z,18.20
2022-09-15T07:16:00.141Z,18.21
2022-09-15T07:18:27.483Z,18.32
2022-09-15T07:20:59.227Z,17.41
2022-09-15T07:23:26.136Z,18.09
2022-09-15T07:25:52.509Z,17.62
2022-09-15T07:28:19.131Z,17.45
2022-09-15T07:30:50.346Z,18.08
2022-09-15T07:33:16.734Z,17.78
2022-09-15T07:35:44.326Z,17.27
2022-09-15T07:38:10.956Z,18.26
2022-09-15T07:40:38.470Z,18.04
2022-09-15T07:43:05.946Z,17.73
2022-09-15T07:45:33.321Z,17.84
2022-09-15T07:47:59.776Z,17.97
2022-09-15T07:50:26.175Z,18.06
2022-09-15T07:52:56.046Z,18.48
2022-09-15T07:55:23.148Z,18.78
2022-09-15T07:58:03.190Z,18.16
2022-09-15T08:00:29.861Z,17.69
2022-09-15T08:02:56.396Z,18.66
2022-09-15T08:05:27.969Z,18.66
2022-09-15T08:07:57.537Z,18.73
2022-09-15T08:10:25.232Z,19.11
2022-09-15T08:12:52.370Z,18.60
2022-09-15T08:15:19.003Z,18.84
2022-09-15T08:17:46.494Z,19.00
2022-09-15T08:20:13.922Z,18.73
2022-09-15T08:22:41.148Z,19.35
2022-09-15T08:25:08.034Z,19.39
2022-09-15T08:27:34.420Z,18.68
2022-09-15T08:30:00.935Z,18.77
2022-09-15T08:32:27.307Z,18.69
2022-09-15T08:34:53.799Z,18.13
2022-09-15T08:37:20.382Z,18.52
2022-09-15T08:39:48.034Z,18.35
2022-09-15T08:42:24.010Z,18.65
2022-09-15T08:44:57.508Z,18.79
2022-09-15T08:47:41.916Z,18.27
2022-09-15T08:50:31.008Z,19.03
2022-09-15T08:53:06.765Z,19.10
2022-09-15T08:55:43.699Z,19.41
2022-09-15T08:58:28.556Z,19.80
2022-09-15T09:01:02.874Z,19.49
2022-09-15T09:03:35.461Z,19.71
2022-09-15T09:06:20.224Z,19.21
2022-09-15T09:09:14.487Z,19.17
2022-09-15T09:12:06.120Z,18.91
2022-09-15T09:14:47.004Z,19.45
2022-09-15T09:17:22.197Z,20.21
2022-09-15T09:20:03.625Z,19.96
2022-09-15T09:22:35.757Z,19.90
2022-09-15T09:25:11.878Z,19.60
2022-09-15T09:27:50.816Z,19.61
2022-09-15T09:30:19.771Z,19.88
2022-09-15T09:33:10.636Z,20.08
2022-09-15T09:35:44.931Z,19.37
2022-09-15T09:38:15.741Z,19.89
2022-09-15T09:40:43.023Z,20.09
2022-09-15T09:43:10.403Z,19.97
2022-09-15T09:45:37.050Z,19.30
2022-09-15T09:48:15.160Z,20.21
2022-09-15T09:50:45.921Z,19.73
2022-09-15T09:53:25.206Z,20.58
2022-09-15T09:55:54.948Z,19.66
2022-09-15T09:58:24.317Z,20.15
2022-09-15T10:00:52.671Z,20.24
2022-09-15T10:03:29.430Z,20.03
2022-09-15T10:06:11.684Z,20.39
2022-09-15T10:08:55.903Z,20.35
2022-09-15T10:11:38.173Z,20.72
2022-09-15T10:14:04.678Z,20.46
2022-09-15T10:16:32.647Z,20.71
2022-09-15T10:18:59.317Z,20.49
2022-09-15T10:21:26.060Z,20.84
2022-09-15T10:23:52.584Z,21.26
2022-09-15T10:26:20.859Z,20.74
2022-09-15T10:31:37.726Z,20.79
2022-09-15T10:34:27.655Z,19.79
2022-09-15T10:37:00.418Z,21.41
2022-09-15T10:39:45.877Z,21.21
2022-09-15T10:42:29.816Z,21.24
2022-09-15T10:45:05.250Z,21.22
2022-09-15T10:47:57.344Z,21.46
2022-09-15T10:50:26.849Z,20.94
2022-09-15T10:53:13.414Z,21.00
2022-09-15T10:55:53.292Z,21.33
2022-09-15T10:58:32.206Z,20.48
2022-09-15T11:01:21.937Z,21.73
2022-09-15T11:04:21.159Z,22.38
2022-09-15T11:07:05.456Z,21.46
2022-09-15T11:09:45.610Z,21.37
2022-09-15T11:12:43.454Z,21.77
2022-09-15T11:15:51.121Z,20.77
2022-09-15T11:18:23.292Z,21.43
2022-09-15T11:21:03.892Z,20.84
2022-09-15T11:23:43.032Z,20.90
2022-09-15T11:26:24.362Z,21.48
2022-09-15T11:29:05.392Z,21.16
2022-09-15T11:31:39.602Z,21.32
2022-09-15T11:34:17.770Z,21.42
2022-09-15T11:36:54.769Z,21.36
2022-09-15T11:39:29.347Z,21.85
2022-09-15T11:42:25.049Z,21.15
2022-09-15T11:44:51.718Z,21.16
2022-09-15T11:47:26.906Z,21.00
2022-09-15T11:49:58.484Z,20.78
2022-09-15T11:52:48.917Z,20.64
2022-09-15T11:55:28.277Z,20.63
2022-09-15T11:58:01.820Z,20.47
2022-09-15T12:00:28.424Z,20.84
2022-09-15T12:03:23.269Z,20.49
2022-09-15T12:05:56.227Z,20.85
2022-09-15T12:08:33.740Z,20.68
2022-09-15T12:11:02.418Z,20.81
2022-09-15T12:13:30.345Z,21.35
2022-09-15T12:15:57.553Z,21.18
2022-09-15T12:18:39.837Z,20.79
2022-09-15T12:21:26.919Z,20.63
2022-09-15T12:24:30.944Z,21.01
2022-09-15T12:27:00.895Z,20.86
2022-09-15T12:29:27.214Z,21.59
2022-09-15T12:32:18.521Z,20.00
2022-09-15T12:35:16.325Z,21.57
2022-09-15T12:37:46.648Z,21.98
2022-09-15T12:40:29.842Z,21.58
2022-09-15T12:43:02.482Z,21.13
2022-09-15T12:45:36.163Z,20.28
2022-09-15T12:48:18.945Z,21.33
2022-09-15T12:51:01.577Z,21.46
2022-09-15T12:56:06.911Z,21.57
2022-09-15T12:58:45.542Z,20.49
2022-09-15T13:01:44.240Z,21.39
2022-09-15T13:04:26.882Z,20.85
2022-09-15T13:07:15.228Z,20.43
2022-09-15T13:09:55.999Z,20.49
2022-09-15T13:12:29.799Z,21.27
2022-09-15T13:14:56.959Z,21.43
2022-09-15T13:17:25.638Z,21.83
2022-09-15T13:19:59.746Z,21.22
2022-09-15T13:22:41.289Z,21.11
2022-09-15T13:25:10.779Z,21.51
2022-09-15T13:27:40.939Z,20.97
2022-09-15T13:30:10.315Z,20.88
2022-09-15T13:32:46.771Z,21.32
2022-09-15T13:35:33.761Z,21.03
2022-09-15T13:38:31.912Z,20.44
2022-09-15T13:41:18.049Z,21.08
2022-09-15T13:44:16.700Z,21.11
2022-09-15T13:47:01.129Z,21.10
2022-09-15T13:49:54.926Z,20.70
2022-09-15T13:52:41.897Z,20.80
2022-09-15T13:55:14.414Z,20.45
2022-09-15T14:00:43.757Z,20.87
2022-09-15T14:03:16.252Z,21.05
2022-09-15T14:05:43.342Z,20.24
2022-09-15T14:08:17.332Z,20.76
2022-09-15T14:11:13.005Z,21.24
2022-09-15T14:13:44.894Z,21.08
2022-09-15T14:16:33.913Z,20.38
2022-09-15T14:19:02.550Z,20.08
2022-09-15T14:21:32.402Z,20.64
2022-09-15T14:24:04.332Z,20.82
2022-09-15T14:26:33.394Z,20.33
2022-09-15T14:29:02.039Z,20.41
2022-09-15T14:31:31.510Z,20.72
2022-09-15T14:33:58.321Z,21.49
2022-09-15T14:36:33.825Z,21.36
2022-09-15T14:39:12.114Z,20.59
2022-09-15T14:41:40.018Z,21.40
2022-09-15T14:47:26.739Z,20.88
2022-09-15T14:50:19.767Z,20.39
2022-09-15T14:53:14.065Z,20.88
2022-09-15T14:55:52.891Z,20.89
2022-09-15T14:58:29.877Z,21.13
2022-09-15T15:01:30.291Z,20.60
2022-09-15T15:04:19.902Z,20.68
2022-09-15T15:07:04.190Z,21.20
2022-09-15T15:09:58.994Z,21.38
2022-09-15T15:12:40.519Z,20.72
2022-09-15T15:15:10.773Z,20.28
2022-09-15T15:17:49.702Z,20.50
2022-09-15T15:20:23.094Z,21.20
2022-09-15T15:23:18.975Z,21.02
2022-09-15T15:25:46.998Z,20.84
2022-09-15T15:28:32.726Z,20.84
2022-09-15T15:31:12.201Z,21.31
2022-09-15T15:33:45.995Z,21.04
2022-09-15T15:36:12.465Z,20.12
2022-09-15T15:38:47.520Z,20.47
2022-09-15T15:41:26.766Z,20.91
2022-09-15T15:44:27.022Z,20.19
2022-09-15T15:47:23.603Z,20.88
2022-09-15T15:50:12.414Z,20.68
2022-09-15T15:52:41.392Z,21.01
2022-09-15T15:55:08.481Z,21.07
2022-09-15T15:57:38.798Z,20.91
2022-09-15T16:00:21.639Z,20.66
2022-09-15T16:02:50.116Z,21.19
2022-09-15T16:05:17.031Z,21.09
2022-09-15T16:07:45.940Z,20.23
2022-09-15T16:10:21.576Z,20.24
2022-09-15T16:12:48.114Z,20.71
2022-09-15T16:15:17.700Z,20.71
2022-09-15T16:17:46.854Z,20.87
2022-09-15T16:20:15.983Z,20.57
2022-09-15T16:22:43.364Z,20.90
2022-09-15T16:25:28.080Z,20.62
2022-09-15T16:27:54.839Z,20.96
2022-09-15T16:30:21.260Z,19.60
2022-09-15T16:32:47.733Z,20.52
2022-09-15T16:35:21.781Z,20.46
2022-09-15T16:37:48.238Z,20.78
2022-09-15T16:40:14.817Z,20.15
2022-09-15T16:42:41.247Z,20.49
2022-09-15T16:45:21.330Z,20.73
2022-09-15T16:47:47.737Z,20.76
2022-09-15T16:50:14.202Z,19.87
2022-09-15T16:52:40.574Z,20.97
2022-09-15T16:55:16.924Z,20.89
2022-09-15T16:57:43.337Z,20.33
2022-09-15T17:00:10.464Z,20.32
2022-09-15T17:02:36.892Z,20.63
2022-09-15T17:05:03.465Z,20.42
2022-09-15T17:07:29.873Z,20.63
2022-09-15T17:09:56.458Z,20.19
2022-09-15T17:12:23.393Z,20.18
2022-09-15T17:14:49.746Z,20.34
2022-09-15T17:17:25.879Z,20.06
2022-09-15T17:19:52.259Z,20.24
2022-09-15T17:22:18.651Z,18.56
2022-09-15T17:24:45.070Z,19.08
2022-09-15T17:27:11.561Z,18.93
2022-09-15T17:29:37.936Z,19.67
2022-09-15T17:32:04.456Z,19.57
2022-09-15T17:34:30.888Z,19.66
2022-09-15T17:36:57.269Z,19.44
2022-09-15T17:39:23.737Z,19.77
2022-09-15T17:41:50.215Z,19.23
2022-09-15T17:44:16.889Z,19.60
2022-09-15T17:46:43.375Z,18.94
2022-09-15T17:49:09.877Z,19.56
2022-09-15T17:51:36.344Z,19.77
2022-09-15T17:54:02.846Z,19.83
2022-09-15T17:56:29.223Z,19.68
2022-09-15T17:58:55.660Z,19.89
2022-09-15T18:01:22.716Z,20.07
2022-09-15T18:03:49.994Z,20.19
2022-09-15T18:06:16.424Z,20.28
2022-09-15T18:08:43.053Z,20.33
2022-09-15T18:11:13.577Z,20.29
2022-09-15T18:13:40.018Z,20.52
2022-09-15T18:16:12.202Z,20.56
2022-09-15T18:18:40.360Z,20.59
2022-09-15T18:21:09.628Z,20.63
2022-09-15T18:23:39.434Z,20.24
2022-09-15T18:26:05.933Z,20.10
2022-09-15T18:28:32.390Z,20.31
2022-09-15T18:30:58.919Z,20.17
2022-09-15T18:33:26.158Z,19.68
2022-09-15T18:35:54.933Z,20.05
2022-09-15T18:38:22.690Z,20.34
2022-09-15T18:40:53.194Z,19.85
2022-09-15T18:43:20.721Z,19.84
2022-09-15T18:45:48.177Z,19.75
2022-09-15T18:48:14.714Z,20.20
2022-09-15T18:50:43.413Z,20.24
2022-09-15T18:53:10.197Z,20.49
2022-09-15T18:55:36.641Z,19.77
2022-09-15T18:58:03.124Z,19.32
2022-09-15T19:00:30.081Z,19.24
2022-09-15T19:02:58.824Z,18.65
2022-09-15T19:05:25.966Z,18.64
2022-09-15T19:07:52.845Z,19.21
2022-09-15T19:10:19.584Z,18.76
2022-09-15T19:12:45.986Z,19.01
2022-09-15T19:15:13.604Z,19.14
2022-09-15T19:17:41.169Z,18.93
2022-09-15T19:20:09.816Z,18.40
2022-09-15T19:22:37.108Z,18.50
2022-09-15T19:25:05.306Z,18.76
2022-09-15T19:27:32.324Z,17.14
2022-09-15T19:29:58.885Z,18.34
2022-09-15T19:32:25.539Z,18.19
2022-09-15T19:34:52.216Z,18.22
2022-09-15T19:37:20.347Z,17.63
2022-09-15T19:39:48.066Z,17.82
2022-09-15T19:44:42.272Z,18.07
2022-09-15T19:47:09.434Z,18.03
2022-09-15T19:49:35.927Z,18.01
2022-09-15T19:52:02.406Z,17.09
2022-09-15T19:54:30.407Z,17.05
2022-09-15T19:56:57.429Z,17.69
2022-09-15T19:59:28.712Z,17.84
2022-09-15T20:01:57.683Z,17.62
2022-09-15T20:04:24.200Z,18.20
2022-09-15T20:06:50.648Z,17.61
2022-09-15T20:09:17.617Z,18.01
2022-09-15T20:11:44.202Z,17.97
2022-09-15T20:14:10.675Z,17.30
2022-09-15T20:16:37.215Z,17.80
2022-09-15T20:19:04.795Z,18.16
2022-09-15T20:21:49.136Z,18.30
2022-09-15T20:24:17.775Z,18.06
2022-09-15T20:26:44.233Z,17.38
2022-09-15T20:29:11.712Z,17.51
2022-09-15T20:31:38.289Z,17.84
2022-09-15T20:34:05.107Z,17.58
2022-09-15T20:36:35.451Z,17.63
2022-09-15T20:39:08.646Z,17.62
2022-09-15T20:41:35.374Z,17.48
2022-09-15T20:44:02.045Z,17.81
2022-09-15T20:46:31.385Z,17.77
2022-09-15T20:48:57.815Z,17.46
2022-09-15T20:51:27.783Z,17.05
2022-09-15T20:53:56.524Z,16.65
2022-09-15T20:56:25.629Z,16.91
2022-09-15T20:58:53.856Z,16.83
2022-09-15T21:01:23.286Z,17.69
2022-09-15T21:03:50.361Z,16.57
2022-09-15T21:06:22.711Z,17.62
2022-09-15T21:08:49.966Z,16.58
2022-09-15T21:11:19.409Z,17.48
2022-09-15T21:13:47.118Z,16.93
2022-09-15T21:16:16.148Z,16.81
2022-09-15T21:18:44.393Z,16.84
2022-09-15T21:21:16.646Z,17.26
2022-09-15T21:23:58.599Z,17.16
2022-09-15T21:26:27.656Z,17.54
2022-09-15T21:28:55.640Z,17.69
2022-09-15T21:31:26.063Z,17.71
2022-09-15T21:33:54.153Z,17.09
2022-09-15T21:36:23.798Z,17.40
2022-09-15T21:38:53.019Z,17.41
2022-09-15T21:41:22.408Z,17.69
2022-09-15T21:43:53.028Z,17.86
2022-09-15T21:46:20.683Z,17.04
2022-09-15T21:48:48.651Z,17.32
2022-09-15T21:51:24.200Z,17.11
2022-09-15T21:53:52.883Z,17.25
2022-09-15T21:56:19.492Z,16.60
2022-09-15T21:58:46.175Z,17.12
2022-09-15T22:01:25.193Z,17.50
2022-09-15T22:04:03.336Z,17.47
2022-09-15T22:06:32.355Z,17.15
2022-09-15T22:09:04.801Z,17.18
2022-09-15T22:11:31.593Z,16.42
2022-09-15T22:13:58.058Z,16.63
2022-09-15T22:16:25.258Z,17.23
2022-09-15T22:18:52.121Z,17.36
2022-09-15T22:21:24.234Z,17.48
2022-09-15T22:23:52.175Z,17.44
2022-09-15T22:26:27.202Z,17.07
2022-09-15T22:28:54.588Z,17.34
2022-09-15T22:31:22.223Z,16.53
2022-09-15T22:33:48.893Z,16.74
2022-09-15T22:36:17.636Z,16.95
2022-09-15T22:38:44.611Z,17.23
2022-09-15T22:41:13.632Z,16.58
2022-09-15T22:43:41.864Z,17.12
2022-09-15T22:46:09.244Z,16.73
2022-09-15T22:48:39.756Z,17.16
2022-09-15T22:51:10.164Z,17.43
2022-09-15T22:53:36.646Z,17.08
2022-09-15T22:56:09.818Z,16.38
2022-09-15T22:58:37.013Z,16.34
2022-09-15T23:01:18.328Z,16.77
2022-09-15T23:03:47.504Z,16.59
2022-09-15T23:06:14.392Z,16.79
2022-09-15T23:08:40.806Z,17.03
2022-09-15T23:11:12.821Z,17.37
2022-09-15T23:13:40.765Z,16.34
2022-09-15T23:16:09.411Z,17.29
2022-09-15T23:18:36.535Z,17.15
2022-09-15T23:21:07.257Z,16.55
2022-09-15T23:23:35.766Z,17.42
2022-09-15T23:26:03.748Z,16.39
2022-09-15T23:28:30.795Z,17.14
2022-09-15T23:30:58.368Z,16.66
2022-09-15T23:33:26.310Z,16.84
2022-09-15T23:35:53.248Z,17.06
2022-09-15T23:38:20.785Z,16.63
2022-09-15T23:40:49.734Z,16.34
2022-09-15T23:43:16.735Z,16.87
2022-09-15T23:45:44.491Z,16.81
2022-09-15T23:48:11.425Z,16.12
2022-09-15T23:50:39.088Z,16.85
2022-09-15T23:53:06.380Z,15.70
2022-09-15T23:55:32.849Z,16.53
2022-09-15T23:57:59.356Z,16.73
